createdAt,value
2019-04-06T00:00:04.554Z,967.31
2019-04-06T00:01:05.181Z,967.23
2019-04-06T00:02:05.338Z,967.20
2019-04-06T00:03:05.364Z,967.09
2019-04-06T00:04:04.519Z,967.20
2019-04-06T00:05:05.137Z,967.08
2019-04-06T00:06:05.038Z,967.19
2019-04-06T00:07:05.038Z,967.14
2019-04-06T00:08:04.961Z,967.14
2019-04-06T00:09:05.158Z,967.16
2019-04-06T00:10:05.406Z,967.11
2019-04-06T00:11:05.606Z,967.11
2019-04-06T00:12:04.673Z,967.19
2019-04-06T00:13:04.769Z,967.27
2019-04-06T00:14:04.941Z,967.22
2019-04-06T00:15:05.299Z,967.36
2019-04-06T00:16:05.342Z,967.11
2019-04-06T00:17:05.352Z,967.25
2019-04-06T00:18:05.386Z,967.05
2019-04-06T00:19:04.694Z,967.22
2019-04-06T00:20:04.692Z,967.19
2019-04-06T00:21:05.365Z,967.16
2019-04-06T00:22:04.705Z,967.24
2019-04-06T00:23:05.137Z,967.32
2019-04-06T00:24:05.147Z,967.24
2019-04-06T00:25:05.471Z,967.13
2019-04-06T00:26:05.413Z,967.29
2019-04-06T00:27:04.645Z,967.24
2019-04-06T00:28:05.361Z,967.09
2019-04-06T00:29:05.523Z,967.21
2019-04-06T00:30:04.592Z,967.15
2019-04-06T00:31:05.317Z,967.20
2019-04-06T00:32:05.581Z,967.20
2019-04-06T00:33:05.497Z,967.26
2019-04-06T00:34:05.517Z,967.39
2019-04-06T00:35:05.383Z,967.34
2019-04-06T00:36:04.534Z,967.34
2019-04-06T00:37:05.155Z,967.20
2019-04-06T00:38:05.413Z,967.11
2019-04-06T00:39:04.773Z,967.28
2019-04-06T00:40:04.814Z,967.36
2019-04-06T00:41:04.922Z,967.25
2019-04-06T00:42:05.086Z,967.25
2019-04-06T00:43:05.566Z,967.16
2019-04-06T00:44:05.507Z,967.28
2019-04-06T00:45:04.759Z,967.19
2019-04-06T00:46:04.862Z,967.25
2019-04-06T00:47:04.954Z,967.02
2019-04-06T00:48:05.178Z,967.27
2019-04-06T00:49:05.074Z,967.33
2019-04-06T00:50:05.261Z,967.21
2019-04-06T00:51:05.498Z,967.21
2019-04-06T00:52:05.408Z,967.27
2019-04-06T00:53:04.739Z,967.13
2019-04-06T00:54:04.969Z,967.04
2019-04-06T00:55:05.183Z,967.18
2019-04-06T00:56:05.495Z,967.15
2019-04-06T00:57:04.537Z,967.18
2019-04-06T00:58:05.388Z,967.12
2019-04-06T00:59:04.614Z,967.10
2019-04-06T01:00:05.159Z,967.10
2019-04-06T01:01:05.235Z,967.15
2019-04-06T01:02:05.350Z,967.15
2019-04-06T01:03:05.406Z,967.15
2019-04-06T01:04:04.600Z,967.26
2019-04-06T01:05:05.225Z,967.23
2019-04-06T01:06:05.202Z,967.12
2019-04-06T01:07:04.758Z,967.06
2019-04-06T01:08:04.806Z,967.09
2019-04-06T01:09:04.849Z,967.06
2019-04-06T01:10:05.035Z,967.20
2019-04-06T01:11:05.204Z,967.12
2019-04-06T01:12:05.460Z,967.06
2019-04-06T01:13:04.690Z,967.09
2019-04-06T01:14:05.039Z,967.06
2019-04-06T01:15:05.048Z,967.06
2019-04-06T01:16:04.740Z,967.17
2019-04-06T01:17:05.106Z,967.17
2019-04-06T01:18:05.159Z,967.14
2019-04-06T01:19:04.582Z,967.14
2019-04-06T01:20:05.451Z,967.20
2019-04-06T01:21:04.649Z,967.20
2019-04-06T01:22:05.208Z,967.11
2019-04-06T01:23:05.323Z,967.16
2019-04-06T01:24:05.461Z,967.22
2019-04-06T01:25:04.637Z,967.11
2019-04-06T01:26:07.889Z,967.36
2019-04-06T01:27:05.240Z,967.13
2019-04-06T01:28:04.591Z,967.07
2019-04-06T01:29:04.734Z,967.24
2019-04-06T01:30:05.177Z,967.27
2019-04-06T01:31:05.479Z,967.13
2019-04-06T01:32:05.419Z,967.24
2019-04-06T01:33:04.759Z,967.15
2019-04-06T01:34:04.810Z,967.24
2019-04-06T01:35:05.121Z,967.40
2019-04-06T01:36:05.119Z,967.29
2019-04-06T01:37:05.219Z,967.29
2019-04-06T01:38:05.310Z,967.35
2019-04-06T01:39:04.678Z,967.45
2019-04-06T01:40:04.586Z,967.35
2019-04-06T01:41:04.870Z,967.29
2019-04-06T01:42:05.057Z,967.26
2019-04-06T01:43:10.258Z,967.32
2019-04-06T01:44:04.808Z,967.42
2019-04-06T01:45:05.087Z,967.32
2019-04-06T01:46:05.140Z,967.26
2019-04-06T01:47:05.380Z,967.32
2019-04-06T01:48:04.737Z,967.34
2019-04-06T01:49:04.691Z,967.31
2019-04-06T01:50:05.034Z,967.23
2019-04-06T01:51:05.026Z,967.14
2019-04-06T01:52:05.030Z,967.09
2019-04-06T01:53:05.165Z,967.34
2019-04-06T01:54:05.397Z,967.23
2019-04-06T01:55:04.614Z,967.17
2019-04-06T01:56:05.267Z,967.09
2019-04-06T01:57:04.705Z,967.09
2019-04-06T01:58:04.915Z,967.14
2019-04-06T01:59:04.989Z,967.20
2019-04-06T02:00:05.440Z,967.20
2019-04-06T02:01:04.673Z,967.12
2019-04-06T02:02:04.889Z,967.06
2019-04-06T02:03:05.219Z,967.06
2019-04-06T02:04:05.318Z,967.15
2019-04-06T02:05:05.582Z,967.14
2019-04-06T02:06:04.743Z,967.03
2019-04-06T02:07:05.207Z,966.99
2019-04-06T02:08:04.726Z,967.09
2019-04-06T02:09:04.825Z,967.06
2019-04-06T02:10:04.953Z,967.03
2019-04-06T02:11:05.269Z,967.15
2019-04-06T02:12:04.501Z,967.06
2019-04-06T02:13:05.389Z,967.32
2019-04-06T02:14:05.531Z,967.23
2019-04-06T02:15:05.477Z,967.07
2019-04-06T02:16:04.855Z,967.20
2019-04-06T02:17:04.910Z,967.15
2019-04-06T02:18:06.441Z,967.12
2019-04-06T02:19:05.116Z,967.12
2019-04-06T02:20:05.336Z,967.21
2019-04-06T02:21:05.544Z,967.04
2019-04-06T02:22:05.435Z,967.10
2019-04-06T02:23:04.598Z,967.07
2019-04-06T02:24:04.755Z,967.10
2019-04-06T02:25:04.759Z,967.04
2019-04-06T02:26:05.353Z,967.21
2019-04-06T02:27:05.486Z,967.27
2019-04-06T02:28:05.488Z,967.35
2019-04-06T02:29:04.790Z,967.16
2019-04-06T02:30:05.035Z,967.33
2019-04-06T02:31:05.105Z,967.21
2019-04-06T02:32:05.285Z,967.30
2019-04-06T02:33:05.352Z,967.24
2019-04-06T02:34:05.517Z,967.16
2019-04-06T02:35:04.890Z,967.13
2019-04-06T02:36:04.889Z,967.13
2019-04-06T02:37:05.269Z,967.13
2019-04-06T02:38:05.404Z,967.07
2019-04-06T02:39:05.462Z,967.07
2019-04-06T02:40:09.525Z,967.02
2019-04-06T02:41:05.626Z,967.04
2019-04-06T02:42:04.692Z,967.10
2019-04-06T02:43:09.959Z,967.16
2019-04-06T02:44:05.450Z,967.10
2019-04-06T02:45:05.240Z,967.21
2019-04-06T02:46:05.160Z,967.19
2019-04-06T02:47:04.731Z,967.21
2019-04-06T02:48:05.048Z,967.21
2019-04-06T02:49:05.235Z,967.13
2019-04-06T02:50:05.737Z,967.10
2019-04-06T02:51:04.643Z,967.22
2019-04-06T02:52:05.149Z,967.24
2019-04-06T02:53:05.077Z,967.27
2019-04-06T02:54:05.345Z,967.19
2019-04-06T02:55:05.472Z,967.30
2019-04-06T02:56:04.686Z,967.40
2019-04-06T02:57:05.190Z,967.24
2019-04-06T02:58:04.934Z,967.27
2019-04-06T02:59:05.204Z,967.24
2019-04-06T03:00:04.687Z,967.19
2019-04-06T03:01:04.707Z,967.27
2019-04-06T03:02:05.020Z,967.19
2019-04-06T03:03:05.214Z,967.16
2019-04-06T03:04:05.435Z,967.33
2019-04-06T03:05:10.436Z,967.36
2019-04-06T03:06:05.029Z,967.36
2019-04-06T03:07:05.071Z,967.16
2019-04-06T03:08:05.307Z,967.40
2019-04-06T03:09:05.323Z,967.36
2019-04-06T03:10:05.554Z,967.30
2019-04-06T03:11:04.817Z,967.33
2019-04-06T03:12:04.932Z,967.33
2019-04-06T03:13:05.219Z,967.30
2019-04-06T03:14:05.359Z,967.46
2019-04-06T03:15:05.423Z,967.27
2019-04-06T03:16:04.827Z,967.30
2019-04-06T03:17:05.062Z,967.36
2019-04-06T03:18:05.192Z,967.25
2019-04-06T03:19:05.663Z,967.41
2019-04-06T03:20:04.568Z,967.36
2019-04-06T03:21:05.517Z,967.44
2019-04-06T03:22:04.666Z,967.33
2019-04-06T03:23:05.147Z,967.28
2019-04-06T03:24:05.274Z,967.22
2019-04-06T03:25:04.630Z,967.31
2019-04-06T03:26:05.513Z,967.28
2019-04-06T03:27:04.748Z,967.33
2019-04-06T03:28:04.717Z,967.33
2019-04-06T03:29:04.539Z,967.22
2019-04-06T03:30:05.000Z,967.28
2019-04-06T03:31:04.874Z,967.31
2019-04-06T03:32:04.921Z,967.50
2019-04-06T03:33:05.050Z,967.41
2019-04-06T03:34:05.453Z,967.53
2019-04-06T03:35:04.729Z,967.22
2019-04-06T03:36:04.829Z,967.41
2019-04-06T03:37:05.045Z,967.34
2019-04-06T03:38:05.056Z,967.41
2019-04-06T03:39:05.181Z,967.25
2019-04-06T03:40:05.302Z,967.41
2019-04-06T03:41:04.634Z,967.34
2019-04-06T03:42:04.831Z,967.41
2019-04-06T03:43:10.052Z,967.53
2019-04-06T03:44:05.656Z,967.56
2019-04-06T03:45:04.832Z,967.47
2019-04-06T03:46:04.911Z,967.41
2019-04-06T03:47:05.160Z,967.31
2019-04-06T03:48:05.367Z,967.34
2019-04-06T03:49:05.557Z,967.31
2019-04-06T03:50:04.731Z,967.39
2019-04-06T03:51:05.001Z,967.39
2019-04-06T03:52:05.524Z,967.47
2019-04-06T03:53:04.838Z,967.64
2019-04-06T03:54:05.370Z,967.56
2019-04-06T03:55:05.437Z,967.45
2019-04-06T03:56:04.626Z,967.39
2019-04-06T03:57:16.992Z,967.56
2019-04-06T03:58:04.658Z,967.59
2019-04-06T03:59:04.704Z,967.48
2019-04-06T04:00:05.284Z,967.42
2019-04-06T04:01:05.402Z,967.56
2019-04-06T04:02:05.471Z,967.54
2019-04-06T04:03:10.899Z,967.51
2019-04-06T04:04:05.508Z,967.40
2019-04-06T04:05:04.498Z,967.54
2019-04-06T04:06:04.901Z,967.54
2019-04-06T04:07:05.492Z,967.51
2019-04-06T04:08:04.646Z,967.43
2019-04-06T04:09:04.821Z,967.43
2019-04-06T04:10:05.314Z,967.46
2019-04-06T04:11:05.405Z,967.49
2019-04-06T04:12:04.522Z,967.46
2019-04-06T04:13:04.914Z,967.46
2019-04-06T04:14:05.234Z,967.46
2019-04-06T04:15:05.323Z,967.46
2019-04-06T04:16:05.259Z,967.49
2019-04-06T04:17:05.313Z,967.50
2019-04-06T04:18:05.786Z,967.55
2019-04-06T04:19:04.759Z,967.50
2019-04-06T04:20:04.869Z,967.61
2019-04-06T04:21:05.144Z,967.53
2019-04-06T04:22:05.358Z,967.42
2019-04-06T04:23:04.809Z,967.58
2019-04-06T04:24:04.960Z,967.61
2019-04-06T04:25:05.611Z,967.56
2019-04-06T04:26:04.892Z,967.53
2019-04-06T04:27:05.101Z,967.67
2019-04-06T04:28:05.453Z,967.53
2019-04-06T04:29:04.898Z,967.65
2019-04-06T04:30:04.881Z,967.45
2019-04-06T04:31:05.316Z,967.56
2019-04-06T04:32:05.343Z,967.51
2019-04-06T04:33:05.372Z,967.53
2019-04-06T04:34:04.799Z,967.56
2019-04-06T04:35:04.565Z,967.68
2019-04-06T04:36:05.086Z,967.71
2019-04-06T04:37:05.228Z,967.51
2019-04-06T04:38:04.538Z,967.59
2019-04-06T04:39:04.805Z,967.62
2019-04-06T04:40:04.879Z,967.54
2019-04-06T04:41:05.296Z,967.65
2019-04-06T04:42:05.626Z,967.57
2019-04-06T04:43:10.272Z,967.65
2019-04-06T04:44:04.741Z,967.48
2019-04-06T04:45:05.521Z,967.60
2019-04-06T04:46:04.943Z,967.65
2019-04-06T04:47:05.349Z,967.68
2019-04-06T04:48:05.642Z,967.63
2019-04-06T04:49:04.935Z,967.54
2019-04-06T04:50:05.001Z,967.54
2019-04-06T04:51:05.027Z,967.68
2019-04-06T04:52:05.608Z,967.54
2019-04-06T04:53:05.619Z,967.54
2019-04-06T04:54:04.744Z,967.60
2019-04-06T04:55:05.394Z,967.60
2019-04-06T04:56:04.602Z,967.57
2019-04-06T04:57:04.894Z,967.49
2019-04-06T04:58:05.220Z,967.51
2019-04-06T04:59:04.709Z,967.57
2019-04-06T05:00:05.148Z,967.57
2019-04-06T05:01:04.684Z,967.63
2019-04-06T05:02:05.185Z,967.68
2019-04-06T05:03:04.947Z,967.63
2019-04-06T05:04:05.137Z,967.60
2019-04-06T05:05:05.429Z,967.66
2019-04-06T05:06:05.257Z,967.77
2019-04-06T05:07:05.444Z,967.49
2019-04-06T05:08:04.615Z,967.71
2019-04-06T05:09:05.363Z,967.63
2019-04-06T05:10:05.674Z,967.68
2019-04-06T05:11:04.908Z,967.74
2019-04-06T05:12:04.871Z,967.60
2019-04-06T05:13:05.031Z,967.82
2019-04-06T05:14:05.703Z,967.68
2019-04-06T05:15:04.894Z,967.71
2019-04-06T05:16:04.961Z,967.76
2019-04-06T05:17:05.072Z,967.71
2019-04-06T05:18:05.066Z,967.79
2019-04-06T05:19:05.461Z,967.71
2019-04-06T05:20:05.142Z,967.71
2019-04-06T05:21:04.907Z,967.82
2019-04-06T05:22:04.910Z,967.68
2019-04-06T05:23:05.134Z,967.76
2019-04-06T05:24:05.509Z,967.79
2019-04-06T05:25:04.717Z,967.65
2019-04-06T05:26:04.694Z,967.73
2019-04-06T05:27:05.059Z,967.73
2019-04-06T05:28:05.275Z,967.65
2019-04-06T05:29:05.389Z,967.73
2019-04-06T05:30:05.567Z,967.68
2019-04-06T05:31:04.978Z,967.73
2019-04-06T05:32:05.670Z,967.67
2019-04-06T05:33:05.570Z,967.67
2019-04-06T05:34:05.472Z,967.65
2019-04-06T05:35:04.748Z,967.67
2019-04-06T05:36:04.761Z,967.81
2019-04-06T05:37:05.430Z,967.73
2019-04-06T05:38:05.170Z,967.64
2019-04-06T05:39:05.534Z,967.67
2019-04-06T05:40:05.700Z,967.78
2019-04-06T05:41:04.615Z,967.70
2019-04-06T05:42:05.170Z,967.67
2019-04-06T05:43:10.197Z,967.73
2019-04-06T05:44:04.771Z,967.67
2019-04-06T05:45:04.863Z,967.73
2019-04-06T05:46:05.198Z,967.78
2019-04-06T05:47:05.413Z,967.73
2019-04-06T05:48:04.814Z,967.81
2019-04-06T05:49:05.372Z,967.78
2019-04-06T05:50:04.543Z,967.78
2019-04-06T05:51:04.598Z,967.79
2019-04-06T05:52:04.759Z,967.81
2019-04-06T05:53:05.274Z,967.76
2019-04-06T05:54:05.449Z,967.84
2019-04-06T05:55:04.633Z,967.79
2019-04-06T05:56:04.960Z,967.90
2019-04-06T05:57:05.411Z,967.79
2019-04-06T05:58:10.831Z,967.79
2019-04-06T05:59:04.666Z,967.87
2019-04-06T06:00:04.976Z,967.76
2019-04-06T06:01:05.316Z,967.81
2019-04-06T06:02:05.353Z,967.76
2019-04-06T06:03:11.738Z,967.92
2019-04-06T06:04:05.180Z,967.90
2019-04-06T06:05:05.337Z,967.81
2019-04-06T06:06:05.264Z,968.09
2019-04-06T06:07:05.386Z,967.95
2019-04-06T06:08:05.588Z,967.90
2019-04-06T06:09:05.832Z,967.84
2019-04-06T06:10:04.813Z,968.12
2019-04-06T06:11:05.402Z,968.01
2019-04-06T06:12:05.395Z,968.04
2019-04-06T06:13:04.742Z,968.04
2019-04-06T06:14:05.041Z,968.04
2019-04-06T06:15:05.197Z,968.01
2019-04-06T06:16:05.247Z,967.98
2019-04-06T06:17:05.207Z,968.07
2019-04-06T06:18:05.501Z,967.98
2019-04-06T06:19:05.457Z,967.95
2019-04-06T06:20:04.707Z,967.92
2019-04-06T06:21:04.851Z,968.07
2019-04-06T06:22:05.231Z,968.01
2019-04-06T06:23:04.909Z,968.04
2019-04-06T06:24:04.585Z,968.01
2019-04-06T06:25:04.997Z,967.98
2019-04-06T06:26:04.951Z,967.98
2019-04-06T06:27:05.082Z,968.23
2019-04-06T06:28:15.528Z,968.06
2019-04-06T06:29:05.313Z,968.09
2019-04-06T06:30:05.632Z,968.00
2019-04-06T06:31:04.630Z,967.97
2019-04-06T06:32:05.348Z,968.03
2019-04-06T06:33:04.880Z,968.08
2019-04-06T06:34:04.789Z,968.08
2019-04-06T06:35:05.212Z,968.08
2019-04-06T06:36:05.347Z,968.03
2019-04-06T06:37:05.403Z,968.14
2019-04-06T06:38:04.540Z,968.05
2019-04-06T06:39:05.020Z,968.05
2019-04-06T06:40:05.031Z,968.08
2019-04-06T06:41:05.407Z,968.08
2019-04-06T06:42:05.443Z,968.19
2019-04-06T06:43:10.187Z,968.13
2019-04-06T06:44:04.863Z,968.13
2019-04-06T06:45:05.491Z,968.02
2019-04-06T06:46:04.856Z,968.08
2019-04-06T06:47:04.939Z,968.16
2019-04-06T06:48:04.755Z,968.07
2019-04-06T06:49:05.120Z,968.02
2019-04-06T06:50:05.090Z,968.16
2019-04-06T06:51:05.482Z,968.07
2019-04-06T06:52:04.707Z,968.01
2019-04-06T06:53:05.103Z,968.13
2019-04-06T06:54:04.721Z,967.90
2019-04-06T06:55:05.379Z,967.95
2019-04-06T06:56:05.413Z,968.04
2019-04-06T06:57:04.609Z,967.98
2019-04-06T06:58:04.902Z,968.09
2019-04-06T06:59:04.728Z,968.08
2019-04-06T07:00:05.096Z,968.00
2019-04-06T07:01:04.579Z,968.05
2019-04-06T07:02:05.499Z,968.13
2019-04-06T07:03:05.635Z,968.01
2019-04-06T07:04:10.686Z,968.06
2019-04-06T07:05:05.399Z,968.12
2019-04-06T07:06:05.814Z,968.03
2019-04-06T07:07:04.972Z,968.03
2019-04-06T07:08:05.303Z,968.05
2019-04-06T07:09:05.371Z,968.08
2019-04-06T07:10:06.587Z,968.16
2019-04-06T07:11:05.542Z,968.01
2019-04-06T07:12:04.665Z,967.92
2019-04-06T07:13:04.686Z,968.06
2019-04-06T07:14:05.718Z,968.00
2019-04-06T07:15:04.670Z,967.94
2019-04-06T07:16:05.328Z,968.14
2019-04-06T07:17:05.406Z,968.03
2019-04-06T07:18:05.118Z,968.03
2019-04-06T07:19:05.511Z,968.11
2019-04-06T07:20:05.378Z,968.19
2019-04-06T07:21:04.774Z,968.11
2019-04-06T07:22:05.201Z,968.11
2019-04-06T07:23:05.434Z,967.96
2019-04-06T07:24:05.505Z,968.19
2019-04-06T07:25:05.045Z,968.07
2019-04-06T07:26:05.149Z,968.16
2019-04-06T07:27:05.292Z,968.01
2019-04-06T07:28:04.581Z,968.18
2019-04-06T07:29:05.383Z,968.18
2019-04-06T07:30:04.623Z,968.18
2019-04-06T07:31:04.999Z,968.20
2019-04-06T07:32:05.071Z,968.20
2019-04-06T07:33:05.078Z,968.26
2019-04-06T07:34:05.343Z,968.14
2019-04-06T07:35:04.520Z,968.17
2019-04-06T07:36:05.138Z,968.31
2019-04-06T07:37:05.240Z,968.28
2019-04-06T07:38:05.605Z,968.36
2019-04-06T07:39:05.170Z,968.28
2019-04-06T07:40:05.452Z,968.28
2019-04-06T07:41:05.514Z,968.25
2019-04-06T07:42:04.710Z,968.25
2019-04-06T07:43:10.240Z,968.36
2019-04-06T07:44:06.503Z,968.25
2019-04-06T07:45:05.447Z,968.22
2019-04-06T07:46:04.742Z,968.13
2019-04-06T07:47:05.300Z,968.25
2019-04-06T07:48:04.658Z,968.27
2019-04-06T07:49:10.348Z,968.22
2019-04-06T07:50:05.451Z,968.07
2019-04-06T07:51:04.795Z,968.19
2019-04-06T07:52:05.084Z,968.21
2019-04-06T07:53:05.423Z,968.18
2019-04-06T07:54:04.736Z,968.29
2019-04-06T07:55:04.973Z,968.29
2019-04-06T07:56:05.065Z,968.20
2019-04-06T07:57:04.770Z,968.19
2019-04-06T07:58:05.103Z,968.19
2019-04-06T07:59:05.380Z,968.21
2019-04-06T08:00:05.930Z,968.20
2019-04-06T08:01:05.013Z,968.22
2019-04-06T08:02:05.108Z,968.21
2019-04-06T08:03:10.351Z,968.09
2019-04-06T08:04:04.892Z,968.08
2019-04-06T08:05:05.277Z,968.25
2019-04-06T08:06:04.685Z,968.27
2019-04-06T08:07:04.873Z,968.26
2019-04-06T08:08:05.320Z,968.00
2019-04-06T08:09:05.164Z,968.27
2019-04-06T08:10:04.595Z,968.12
2019-04-06T08:11:05.089Z,968.00
2019-04-06T08:12:05.470Z,968.08
2019-04-06T08:13:04.544Z,968.13
2019-04-06T08:14:05.293Z,968.01
2019-04-06T08:15:05.463Z,968.17
2019-04-06T08:16:05.450Z,968.05
2019-04-06T08:17:05.440Z,968.11
2019-04-06T08:18:04.631Z,968.22
2019-04-06T08:19:04.811Z,967.96
2019-04-06T08:20:04.580Z,968.04
2019-04-06T08:21:04.917Z,968.01
2019-04-06T08:22:04.677Z,968.09
2019-04-06T08:23:04.903Z,968.03
2019-04-06T08:24:05.303Z,968.17
2019-04-06T08:25:05.334Z,968.17
2019-04-06T08:26:04.651Z,968.06
2019-04-06T08:27:05.728Z,968.11
2019-04-06T08:28:04.704Z,968.08
2019-04-06T08:29:05.438Z,968.11
2019-04-06T08:30:05.263Z,968.16
2019-04-06T08:31:04.885Z,968.04
2019-04-06T08:32:05.390Z,968.10
2019-04-06T08:33:04.613Z,968.18
2019-04-06T08:34:05.335Z,968.09
2019-04-06T08:35:04.931Z,968.03
2019-04-06T08:36:05.126Z,968.05
2019-04-06T08:37:04.831Z,968.16
2019-04-06T08:38:05.141Z,968.10
2019-04-06T08:39:04.911Z,968.01
2019-04-06T08:40:05.293Z,968.07
2019-04-06T08:41:04.722Z,968.15
2019-04-06T08:42:04.857Z,968.17
2019-04-06T08:43:10.322Z,968.20
2019-04-06T08:44:04.761Z,968.19
2019-04-06T08:45:04.857Z,968.16
2019-04-06T08:46:05.389Z,968.10
2019-04-06T08:47:05.220Z,968.10
2019-04-06T08:48:05.074Z,968.07
2019-04-06T08:49:05.124Z,968.18
2019-04-06T08:50:05.395Z,968.14
2019-04-06T08:51:05.141Z,968.08
2019-04-06T08:52:04.528Z,968.02
2019-04-06T08:53:05.114Z,967.99
2019-04-06T08:54:05.097Z,968.07
2019-04-06T08:55:05.317Z,968.07
2019-04-06T08:56:05.031Z,968.15
2019-04-06T08:57:05.362Z,968.15
2019-04-06T08:58:04.816Z,968.12
2019-04-06T08:59:13.518Z,968.17
2019-04-06T09:00:05.619Z,968.08
2019-04-06T09:01:05.257Z,968.16
2019-04-06T09:02:05.676Z,968.10
2019-04-06T09:03:04.714Z,968.12
2019-04-06T09:04:04.820Z,968.20
2019-04-06T09:05:05.263Z,968.05
2019-04-06T09:06:05.115Z,967.99
2019-04-06T09:07:04.608Z,968.13
2019-04-06T09:08:05.322Z,968.24
2019-04-06T09:09:04.739Z,968.13
2019-04-06T09:10:05.326Z,968.09
2019-04-06T09:11:05.385Z,968.06
2019-04-06T09:12:04.649Z,968.03
2019-04-06T09:13:05.101Z,968.09
2019-04-06T09:14:05.191Z,968.20
2019-04-06T09:15:05.615Z,968.02
2019-04-06T09:16:04.737Z,967.99
2019-04-06T09:17:05.282Z,968.04
2019-04-06T09:18:05.284Z,968.04
2019-04-06T09:19:04.680Z,968.09
2019-04-06T09:20:04.958Z,967.92
2019-04-06T09:21:04.501Z,967.97
2019-04-06T09:22:04.995Z,967.92
2019-04-06T09:23:04.688Z,967.94
2019-04-06T09:24:05.077Z,967.91
2019-04-06T09:25:05.656Z,967.97
2019-04-06T09:26:05.191Z,967.96
2019-04-06T09:27:05.241Z,967.93
2019-04-06T09:28:04.693Z,967.90
2019-04-06T09:29:04.955Z,967.87
2019-04-06T09:30:05.290Z,967.95
2019-04-06T09:31:04.623Z,967.78
2019-04-06T09:32:05.177Z,967.86
2019-04-06T09:33:05.332Z,967.83
2019-04-06T09:34:04.762Z,967.71
2019-04-06T09:35:05.362Z,967.80
2019-04-06T09:36:04.707Z,967.73
2019-04-06T09:37:04.963Z,967.79
2019-04-06T09:38:05.531Z,967.73
2019-04-06T09:39:05.540Z,967.69
2019-04-06T09:40:05.322Z,967.72
2019-04-06T09:41:04.742Z,967.63
2019-04-06T09:42:05.294Z,967.83
2019-04-06T09:43:10.497Z,967.71
2019-04-06T09:44:05.016Z,967.62
2019-04-06T09:45:05.436Z,967.70
2019-04-06T09:46:05.454Z,967.58
2019-04-06T09:47:05.565Z,967.75
2019-04-06T09:48:04.681Z,967.86
2019-04-06T09:49:05.227Z,967.77
2019-04-06T09:50:04.674Z,967.77
2019-04-06T09:51:04.711Z,967.77
2019-04-06T09:52:05.309Z,967.82
2019-04-06T09:53:04.818Z,967.74
2019-04-06T09:54:07.696Z,967.73
2019-04-06T09:55:04.810Z,967.64
2019-04-06T09:56:05.454Z,967.64
2019-04-06T09:57:05.130Z,967.75
2019-04-06T09:58:05.346Z,967.64
2019-04-06T09:59:05.771Z,967.61
2019-04-06T10:00:05.019Z,967.66
2019-04-06T10:01:05.418Z,967.52
2019-04-06T10:02:05.572Z,967.80
2019-04-06T10:03:04.815Z,967.71
2019-04-06T10:04:04.866Z,967.85
2019-04-06T10:05:05.224Z,967.71
2019-04-06T10:06:05.209Z,967.76
2019-04-06T10:07:04.683Z,967.76
2019-04-06T10:08:05.427Z,967.79
2019-04-06T10:09:05.343Z,967.67
2019-04-06T10:10:05.496Z,967.67
2019-04-06T10:11:05.019Z,967.84
2019-04-06T10:12:10.382Z,967.64
2019-04-06T10:13:04.772Z,967.70
2019-04-06T10:14:05.156Z,967.75
2019-04-06T10:15:05.582Z,967.64
2019-04-06T10:16:05.517Z,967.75
2019-04-06T10:17:05.179Z,967.67
2019-04-06T10:18:05.163Z,967.75
2019-04-06T10:19:05.516Z,967.60
2019-04-06T10:20:05.497Z,967.77
2019-04-06T10:21:04.614Z,967.69
2019-04-06T10:22:05.135Z,967.83
2019-04-06T10:23:05.154Z,967.77
2019-04-06T10:24:05.326Z,967.77
2019-04-06T10:25:05.385Z,967.65
2019-04-06T10:26:05.698Z,967.65
2019-04-06T10:27:05.436Z,967.62
2019-04-06T10:28:04.587Z,967.62
2019-04-06T10:29:05.746Z,967.67
2019-04-06T10:30:05.060Z,967.73
2019-04-06T10:31:05.363Z,967.67
2019-04-06T10:32:04.854Z,967.64
2019-04-06T10:33:05.351Z,967.70
2019-04-06T10:34:05.572Z,967.75
2019-04-06T10:35:04.692Z,967.66
2019-04-06T10:36:05.035Z,967.63
2019-04-06T10:37:05.380Z,967.77
2019-04-06T10:38:04.636Z,967.57
2019-04-06T10:39:04.945Z,967.62
2019-04-06T10:40:05.560Z,967.62
2019-04-06T10:41:04.502Z,967.59
2019-04-06T10:42:05.038Z,967.59
2019-04-06T10:43:10.369Z,967.53
2019-04-06T10:44:04.813Z,967.56
2019-04-06T10:45:05.407Z,967.42
2019-04-06T10:46:05.283Z,967.61
2019-04-06T10:47:05.754Z,967.47
2019-04-06T10:48:05.026Z,967.50
2019-04-06T10:49:04.992Z,967.46
2019-04-06T10:50:05.427Z,967.55
2019-04-06T10:51:05.526Z,967.54
2019-04-06T10:52:04.537Z,967.51
2019-04-06T10:53:05.087Z,967.45
2019-04-06T10:54:04.738Z,967.51
2019-04-06T10:55:05.018Z,967.48
2019-04-06T10:56:05.284Z,967.51
2019-04-06T10:57:04.746Z,967.31
2019-04-06T10:58:04.689Z,967.50
2019-04-06T10:59:05.603Z,967.44
2019-04-06T11:00:04.518Z,967.25
2019-04-06T11:01:05.302Z,967.30
2019-04-06T11:02:04.599Z,967.33
2019-04-06T11:03:05.126Z,967.41
2019-04-06T11:04:05.407Z,967.41
2019-04-06T11:05:05.539Z,967.30
2019-04-06T11:06:04.988Z,967.49
2019-04-06T11:07:05.463Z,967.40
2019-04-06T11:08:05.654Z,967.40
2019-04-06T11:09:04.661Z,967.35
2019-04-06T11:10:05.011Z,967.40
2019-04-06T11:11:04.834Z,967.39
2019-04-06T11:12:04.956Z,967.29
2019-04-06T11:13:05.577Z,967.34
2019-04-06T11:14:04.697Z,967.20
2019-04-06T11:15:05.183Z,967.28
2019-04-06T11:16:05.118Z,967.28
2019-04-06T11:17:05.024Z,967.31
2019-04-06T11:18:04.703Z,967.31
2019-04-06T11:19:05.501Z,967.13
2019-04-06T11:20:04.800Z,967.19
2019-04-06T11:21:05.818Z,967.25
2019-04-06T11:22:05.610Z,967.25
2019-04-06T11:23:04.935Z,967.07
2019-04-06T11:24:05.911Z,967.13
2019-04-06T11:25:05.518Z,967.13
2019-04-06T11:26:05.337Z,967.07
2019-04-06T11:27:05.133Z,967.06
2019-04-06T11:28:04.838Z,967.06
2019-04-06T11:29:04.693Z,967.01
2019-04-06T11:30:14.795Z,967.08
2019-04-06T11:31:04.656Z,967.02
2019-04-06T11:32:05.061Z,967.00
2019-04-06T11:33:05.299Z,966.91
2019-04-06T11:34:04.724Z,967.07
2019-04-06T11:35:05.221Z,966.96
2019-04-06T11:36:05.520Z,966.96
2019-04-06T11:37:05.343Z,966.99
2019-04-06T11:38:05.513Z,967.01
2019-04-06T11:39:04.894Z,967.01
2019-04-06T11:40:05.591Z,966.98
2019-04-06T11:41:05.363Z,966.95
2019-04-06T11:42:05.554Z,966.98
2019-04-06T11:43:05.578Z,966.86
2019-04-06T11:44:04.734Z,966.74
2019-04-06T11:45:05.142Z,966.89
2019-04-06T11:46:05.419Z,966.91
2019-04-06T11:47:04.847Z,966.86
2019-04-06T11:48:04.823Z,966.80
2019-04-06T11:49:05.062Z,966.91
2019-04-06T11:50:04.584Z,966.88
2019-04-06T11:51:05.049Z,966.74
2019-04-06T11:52:05.056Z,966.82
2019-04-06T11:53:05.743Z,966.76
2019-04-06T11:54:10.627Z,966.93
2019-04-06T11:55:05.081Z,966.76
2019-04-06T11:56:05.029Z,966.67
2019-04-06T11:57:05.072Z,966.90
2019-04-06T11:58:05.490Z,966.96
2019-04-06T11:59:04.591Z,966.87
2019-04-06T12:00:05.040Z,966.78
2019-04-06T12:01:05.177Z,966.78
2019-04-06T12:02:05.169Z,966.86
2019-04-06T12:03:04.878Z,966.75
2019-04-06T12:04:05.809Z,966.89
2019-04-06T12:05:04.978Z,966.83
2019-04-06T12:06:05.449Z,966.89
2019-04-06T12:07:04.814Z,966.66
2019-04-06T12:08:04.667Z,966.89
2019-04-06T12:09:05.209Z,966.63
2019-04-06T12:10:05.303Z,966.66
2019-04-06T12:11:04.671Z,966.72
2019-04-06T12:12:05.318Z,966.77
2019-04-06T12:13:05.497Z,966.72
2019-04-06T12:14:10.442Z,966.66
2019-04-06T12:15:05.238Z,966.75
2019-04-06T12:16:04.938Z,966.72
2019-04-06T12:17:05.313Z,966.57
2019-04-06T12:18:05.427Z,966.54
2019-04-06T12:19:05.491Z,966.66
2019-04-06T12:20:04.582Z,966.63
2019-04-06T12:21:05.191Z,966.48
2019-04-06T12:22:05.325Z,966.71
2019-04-06T12:23:04.897Z,966.57
2019-04-06T12:24:04.799Z,966.74
2019-04-06T12:25:04.995Z,966.48
2019-04-06T12:26:05.206Z,966.47
2019-04-06T12:27:05.602Z,966.53
2019-04-06T12:28:04.913Z,966.65